Time;durP1;ratioP1;P1;durP2;ratioP2;P2;SDS_P1;SDS_P2;PMS_P1;PMS_P2;Temp;Humidity;BMP_temperature;BMP_pressure;BME280_temperature;BME280_humidity;BME280_pressure;Samples;Min_cycle;Max_cycle;Signal;HPM_P1;HPM_P2
2022/05/13 03:07:50;;;;;;;19.77;8.47;;;;;;;11.63;77.40;100356.27;714176;1174;115429;-76
2022/05/13 03:22:53;;;;;;;15.98;7.53;;;;;;;11.57;77.60;100340.23;714345;1174;114321;-76
2022/05/13 03:37:57;;;;;;;11.87;5.67;;;;;;;11.86;77.37;100344.61;713963;1174;114930;-76
2022/05/13 03:53:02;;;;;;;10.33;5.33;;;;;;;12.08;77.13;100333.78;714208;1174;115536;-76
2022/05/13 04:23:27;;;;;;;32.30;12.05;;;;;;;12.74;77.43;100331.94;713604;1174;115432;-71
2022/05/13 04:38:29;;;;;;;9.40;5.80;;;;;;;13.08;76.50;100343.65;713846;1174;115564;-72
2022/05/13 04:53:35;;;;;;;11.15;6.33;;;;;;;13.27;76.79;100345.29;713442;1174;116096;-72
2022/05/13 05:08:39;;;;;;;7.20;4.70;;;;;;;13.36;76.10;100356.73;713315;1174;115544;-72
2022/05/13 05:23:43;;;;;;;8.25;5.05;;;;;;;13.65;74.12;100365.22;713714;1174;115495;-71
2022/05/13 05:38:46;;;;;;;8.50;5.65;;;;;;;13.94;73.51;100352.73;713222;1174;115652;-72
2022/05/13 06:09:11;;;;;;;8.00;5.13;;;;;;;15.08;72.54;100340.14;714029;1174;115768;-73
2022/05/13 06:24:13;;;;;;;11.20;4.57;;;;;;;15.80;71.54;100342.13;713832;1174;115064;-73
2022/05/13 06:39:16;;;;;;;9.17;4.50;;;;;;;16.73;69.55;100343.28;713942;1174;114729;-74
2022/05/13 06:54:18;;;;;;;9.83;4.93;;;;;;;17.24;67.96;100352.61;713395;1174;115634;-75
2022/05/13 07:09:21;;;;;;;19.88;5.00;;;;;;;17.99;66.55;100350.13;713943;1174;115740;-75
2022/05/13 07:24:23;;;;;;;11.18;3.55;;;;;;;18.67;64.82;100336.71;713848;1174;116118;-76
2022/05/13 07:54:48;;;;;;;3.40;2.13;;;;;;;19.44;62.37;100330.73;713880;1173;115313;-72
2022/05/13 08:09:51;;;;;;;5.88;2.85;;;;;;;19.66;60.84;100330.68;713974;1174;115718;-72
2022/05/13 08:24:54;;;;;;;5.63;2.20;;;;;;;20.94;59.79;100318.80;713556;1174;115834;-72
2022/05/13 08:40:01;;;;;;;6.53;1.63;;;;;;;21.70;57.80;100301.59;713431;1174;115695;-72
2022/05/13 08:55:07;;;;;;;2.80;1.50;;;;;;;21.72;56.51;100288.86;713075;1174;115535;-71
2022/05/13 09:10:12;;;;;;;3.55;1.70;;;;;;;22.74;54.86;100266.05;713662;1174;114989;-73
2022/05/13 09:25:47;;;;;;;1.93;1.13;;;;;;;22.31;53.61;100254.13;713423;1173;115049;-73
2022/05/13 09:41:07;;;;;;;3.53;2.00;;;;;;;20.96;52.69;100239.44;713952;1174;114894;-73
2022/05/13 09:56:14;;;;;;;3.50;1.63;;;;;;;21.04;52.40;100233.09;713490;1174;115767;-74
2022/05/13 10:26:50;;;;;;;1.55;1.25;;;;;;;21.67;52.40;100213.93;713576;1174;115205;-74
2022/05/13 10:42:02;;;;;;;3.70;1.50;;;;;;;21.77;50.11;100206.30;713374;1174;114296;-74
2022/05/13 10:57:42;;;;;;;3.48;1.50;;;;;;;22.28;48.52;100182.42;713764;1174;114949;-72
2022/05/13 11:12:50;;;;;;;3.80;1.60;;;;;;;23.50;47.07;100167.02;713682;1174;115637;-73
2022/05/13 11:28:08;;;;;;;2.53;1.70;;;;;;;22.30;46.61;100172.33;713930;1174;114641;-71
2022/05/13 11:43:20;;;;;;;2.37;1.47;;;;;;;22.11;46.45;100171.42;713940;1174;115709;-74
2022/05/13 11:58:50;;;;;;;7.33;1.70;;;;;;;22.25;47.45;100156.95;714104;1174;115010;-74
2022/05/13 12:14:10;;;;;;;5.80;1.78;;;;;;;22.14;48.18;100152.28;715424;1174;114345;-73
2022/05/13 12:29:19;;;;;;;10.37;5.23;;;;;;;21.74;47.37;100161.33;714162;1174;115718;-73
2022/05/13 12:44:21;;;;;;;4.50;1.60;;;;;;;21.94;47.24;100171.91;716085;1174;115556;-76
2022/05/13 12:59:28;;;;;;;3.43;1.83;;;;;;;21.96;49.78;100163.70;714375;1174;114545;-76
2022/05/13 13:14:43;;;;;;;2.67;1.90;;;;;;;22.24;51.06;100160.66;713932;1174;115488;-76
2022/05/13 13:29:48;;;;;;;7.58;2.30;;;;;;;22.19;51.21;100165.02;714411;1174;115462;-75
2022/05/13 13:45:10;;;;;;;3.10;1.60;;;;;;;21.78;51.93;100172.41;714390;1173;115658;-75
2022/05/13 14:00:36;;;;;;;8.20;2.50;;;;;;;21.63;52.91;100170.01;713812;1174;114168;-75
2022/05/13 14:15:49;;;;;;;2.47;1.80;;;;;;;21.31;52.66;100164.52;713821;1173;114141;-82
2022/05/13 14:31:11;;;;;;;5.50;1.83;;;;;;;20.94;52.52;100143.67;712874;1174;116043;-73
2022/05/13 14:46:16;;;;;;;6.85;2.40;;;;;;;20.23;52.66;100129.08;713384;1174;115078;-74
2022/05/13 15:01:42;;;;;;;8.87;4.43;;;;;;;19.86;53.17;100128.59;713122;1174;115514;-73
2022/05/13 15:16:45;;;;;;;5.87;2.10;;;;;;;20.31;54.92;100137.88;713280;1174;114829;-80
2022/05/13 15:31:48;;;;;;;5.88;3.93;;;;;;;20.21;55.34;100143.61;713451;1174;114990;-85
2022/05/13 15:46:50;;;;;;;10.08;4.23;;;;;;;20.10;55.86;100132.52;713461;1174;115548;-84
2022/05/13 16:01:53;;;;;;;5.18;2.48;;;;;;;19.91;56.99;100119.98;713732;1174;115856;-74
2022/05/13 16:17:07;;;;;;;9.88;4.05;;;;;;;19.87;57.48;100138.19;713345;1174;114071;-76
2022/05/13 16:32:10;;;;;;;9.78;4.73;;;;;;;19.51;57.87;100127.80;713318;1174;115848;-76
2022/05/13 16:47:13;;;;;;;5.60;2.80;;;;;;;18.76;59.55;100155.72;713997;1174;114593;-80
2022/05/13 17:02:16;;;;;;;7.33;3.98;;;;;;;17.93;62.07;100144.70;713713;1174;115325;-75
2022/05/13 17:17:19;;;;;;;15.88;7.55;;;;;;;17.35;63.37;100171.09;713578;1174;114216;-74
2022/05/13 17:32:24;;;;;;;10.40;6.40;;;;;;;16.30;67.65;100244.91;713340;1174;115147;-73
2022/05/13 17:47:27;;;;;;;39.70;17.23;;;;;;;14.59;79.08;100267.73;713250;1174;115776;-73
2022/05/13 18:02:30;;;;;;;23.80;11.03;;;;;;;14.24;81.66;100208.95;713472;1174;115743;-75
2022/05/13 18:17:35;;;;;;;61.23;31.13;;;;;;;14.62;83.76;100208.51;713756;1174;114333;-76
2022/05/13 18:32:38;;;;;;;30.33;13.50;;;;;;;14.29;84.92;100229.56;713782;1174;115516;-76
2022/05/13 18:47:40;;;;;;;22.13;11.23;;;;;;;14.05;85.63;100244.32;714002;1174;115956;-76
2022/05/13 19:02:43;;;;;;;11.73;5.58;;;;;;;13.71;88.10;100265.42;713294;1174;115699;-76
2022/05/13 19:17:45;;;;;;;10.05;5.15;;;;;;;13.32;90.03;100279.80;713994;1174;115448;-73
2022/05/13 19:32:48;;;;;;;11.10;6.43;;;;;;;13.05;92.42;100301.80;713817;1174;115544;-73
2022/05/13 19:47:51;;;;;;;9.73;5.30;;;;;;;12.92;92.73;100304.80;713942;1174;115758;-73
2022/05/13 20:02:54;;;;;;;14.73;6.30;;;;;;;12.67;92.64;100322.99;713437;1174;115226;-73
2022/05/13 20:17:56;;;;;;;9.60;4.10;;;;;;;12.36;93.46;100328.55;713620;1173;115851;-73
2022/05/13 20:32:59;;;;;;;5.30;3.15;;;;;;;12.03;94.88;100328.12;713641;1174;115872;-73
2022/05/13 20:48:01;;;;;;;8.23;3.98;;;;;;;11.91;94.95;100337.13;713952;1174;114789;-73
2022/05/13 21:03:04;;;;;;;9.18;3.73;;;;;;;11.90;93.51;100343.36;713776;1174;114762;-72
2022/05/13 21:18:07;;;;;;;6.17;3.37;;;;;;;11.82;93.37;100346.69;714255;1173;114709;-73
2022/05/13 21:48:32;;;;;;;9.98;3.85;;;;;;;11.66;94.69;100353.34;713785;1174;115234;-73
2022/05/13 22:03:35;;;;;;;5.47;3.57;;;;;;;11.71;93.86;100360.00;712991;1174;115562;-74
2022/05/13 22:18:37;;;;;;;8.58;4.33;;;;;;;11.57;95.64;100345.48;713681;1173;114229;-74
2022/05/13 22:33:40;;;;;;;8.98;5.18;;;;;;;11.77;96.45;100356.80;713443;1174;115607;-74
2022/05/13 22:48:43;;;;;;;13.23;6.80;;;;;;;11.78;96.96;100350.58;713549;1174;115509;-74
2022/05/13 23:03:45;;;;;;;7.77;5.00;;;;;;;11.75;97.98;100332.47;713555;1174;114364;-74
2022/05/13 23:18:48;;;;;;;8.10;5.25;;;;;;;11.73;98.74;100329.98;713800;1174;115553;-74
2022/05/13 23:33:50;;;;;;;11.78;4.75;;;;;;;11.64;98.09;100341.34;713714;1174;115692;-75
2022/05/13 23:48:53;;;;;;;8.33;4.25;;;;;;;11.59;99.58;100339.13;714203;1174;115015;-75
